Time,TemperatureF,DewpointF,PressureIn,WindDirection,WindDirectionDegrees,WindSpeedMPH,WindSpeedGustMPH,Humidity,HourlyPrecipIn,Conditions,Clouds,dailyrainin,SolarRadiationWatts/m^2,SoftwareType,DateUTC
2013-06-30 00:00:00,78.4,74.2,29.85,WNW,290,0.0,0.0,87,0.00,,BKN040,0.45,0.00,VWS V14.00,2013-06-30 04:00:00,
2013-06-30 00:01:00,78.4,74.2,29.84,WNW,290,0.0,0.0,87,0.00,,BKN040,0.45,0.00,VWS V14.00,2013-06-30 04:01:00,
2013-06-30 00:06:00,78.4,74.2,29.84,WNW,290,0.0,0.0,87,0.00,,BKN040,0.00,0.00,VWS V14.00,2013-06-30 04:06:00,
2013-06-30 00:11:00,78.3,74.5,29.85,WNW,290,0.0,0.0,88,0.00,,BKN040,0.00,0.00,VWS V14.00,2013-06-30 04:11:00,
2013-06-30 00:16:00,78.3,74.5,29.85,WNW,290,0.0,3.0,88,0.00,,BKN040,0.00,0.00,VWS V14.00,2013-06-30 04:16:00,
2013-06-30 00:21:00,78.3,74.5,29.84,WNW,289,0.0,4.0,88,0.00,,BKN040,0.00,0.00,VWS V14.00,2013-06-30 04:21:00,
2013-06-30 00:26:00,78.2,74.4,29.84,WNW,286,2.0,4.0,88,0.00,,BKN040,0.00,0.00,VWS V14.00,2013-06-30 04:26:00,
2013-06-30 00:31:00,78.2,74.4,29.84,WNW,284,0.0,0.0,88,0.00,,BKN040,0.00,0.00,VWS V14.00,2013-06-30 04:31:00,
2013-06-30 00:36:00,78.2,74.0,29.84,WNW,282,0.0,4.0,87,0.00,,BKN040,0.00,0.00,VWS V14.00,2013-06-30 04:36:00,
2013-06-30 00:41:00,78.2,74.0,29.84,West,281,0.0,0.0,87,0.00,,BKN040,0.00,0.00,VWS V14.00,2013-06-30 04:41:00,
2013-06-30 00:46:00,78.2,74.0,29.84,West,281,0.0,0.0,87,0.00,,BKN040,0.00,0.00,VWS V14.00,2013-06-30 04:46:00,
2013-06-30 00:51:00,78.2,74.0,29.84,West,277,1.0,1.0,87,0.00,,BKN040,0.00,0.00,VWS V14.00,2013-06-30 04:51:00,
2013-06-30 00:56:00,78.2,74.0,29.84,West,277,0.0,2.0,87,0.00,,BKN040,0.00,0.00,VWS V14.00,2013-06-30 04:56:00,
2013-06-30 01:01:00,78.1,73.9,29.84,West,276,2.0,4.0,87,0.00,,BKN040,0.00,0.00,VWS V14.00,2013-06-30 05:01:00,
2013-06-30 01:08:00,78.1,73.9,29.84,West,276,0.0,0.0,87,0.00,,BKN040,0.00,0.00,VWS V14.00,2013-06-30 05:08:00,
2013-06-30 01:13:00,78.1,73.9,29.84,West,276,0.0,1.0,87,0.00,,BKN040,0.00,0.00,VWS V14.00,2013-06-30 05:13:00,
2013-06-30 01:18:00,78.1,73.9,29.84,West,276,0.0,0.0,87,0.00,,BKN040,0.00,0.00,VWS V14.00,2013-06-30 05:18:00,
2013-06-30 01:23:00,78.1,73.9,29.84,West,275,0.0,3.0,87,0.00,,BKN040,0.00,0.00,VWS V14.00,2013-06-30 05:23:00,
2013-06-30 01:28:00,78.0,73.8,29.84,West,274,0.0,1.0,87,0.00,,BKN040,0.00,0.00,VWS V14.00,2013-06-30 05:28:00,
2013-06-30 01:33:00,78.0,73.8,29.84,West,273,0.0,0.0,87,0.00,,BKN040,0.00,0.00,VWS V14.00,2013-06-30 05:33:00,
2013-06-30 01:38:00,78.0,73.5,29.83,West,272,0.0,4.0,86,0.00,,BKN040,0.00,0.00,VWS V14.00,2013-06-30 05:38:00,
2013-06-30 01:43:00,78.0,73.5,29.83,West,270,0.0,3.0,86,0.00,,BKN040,0.00,0.00,VWS V14.00,2013-06-30 05:43:00,
2013-06-30 01:48:00,77.9,73.4,29.83,West,270,0.0,0.0,86,0.00,,BKN040,0.00,0.00,VWS V14.00,2013-06-30 05:48:00,
2013-06-30 01:53:00,77.9,73.4,29.83,West,270,0.0,0.0,86,0.00,,BKN040,0.00,0.00,VWS V14.00,2013-06-30 05:53:00,
2013-06-30 01:58:00,77.8,73.3,29.83,West,270,0.0,1.0,86,0.00,,BKN040,0.00,0.00,VWS V14.00,2013-06-30 05:58:00,
2013-06-30 02:03:00,77.7,73.2,29.83,West,270,0.0,3.0,86,0.00,,BKN040,0.00,0.00,VWS V14.00,2013-06-30 06:03:00,
2013-06-30 02:10:00,77.6,73.1,29.83,West,270,0.0,0.0,86,0.00,,BKN040,0.00,0.00,VWS V14.00,2013-06-30 06:10:00,
2013-06-30 02:15:00,77.6,73.1,29.83,West,270,0.0,3.0,86,0.00,,BKN040,0.00,0.00,VWS V14.00,2013-06-30 06:15:00,
2013-06-30 02:20:00,77.5,73.0,29.83,West,270,0.0,0.0,86,0.00,,BKN040,0.00,0.00,VWS V14.00,2013-06-30 06:20:00,
2013-06-30 02:25:00,77.5,73.3,29.82,West,269,0.0,1.0,87,0.00,,BKN040,0.00,0.00,VWS V14.00,2013-06-30 06:25:00,
2013-06-30 02:30:00,77.5,73.3,29.83,West,269,0.0,0.0,87,0.00,,BKN040,0.00,0.00,VWS V14.00,2013-06-30 06:30:00,
2013-06-30 02:35:00,77.5,73.3,29.83,West,269,0.0,2.0,87,0.00,,BKN040,0.00,0.00,VWS V14.00,2013-06-30 06:35:00,
2013-06-30 02:40:00,77.4,73.2,29.83,West,269,0.0,0.0,87,0.00,,BKN040,0.00,0.00,VWS V14.00,2013-06-30 06:40:00,
2013-06-30 02:45:00,77.4,73.2,29.83,West,269,0.0,0.0,87,0.00,,BKN040,0.00,0.00,VWS V14.00,2013-06-30 06:45:00,
2013-06-30 02:50:00,77.3,73.1,29.82,West,269,0.0,0.0,87,0.00,,BKN040,0.00,0.00,VWS V14.00,2013-06-30 06:50:00,
2013-06-30 02:55:00,77.3,73.1,29.82,West,269,0.0,0.0,87,0.00,,BKN040,0.00,0.00,VWS V14.00,2013-06-30 06:55:00,
2013-06-30 03:00:00,77.3,73.1,29.82,West,269,0.0,0.0,87,0.00,,BKN040,0.00,0.00,VWS V14.00,2013-06-30 07:00:00,
2013-06-30 03:05:00,77.3,73.1,29.82,West,269,0.0,0.0,87,0.00,,BKN040,0.00,0.00,VWS V14.00,2013-06-30 07:05:00,
2013-06-30 03:10:00,77.2,73.0,29.82,West,269,0.0,0.0,87,0.00,,BKN040,0.00,0.00,VWS V14.00,2013-06-30 07:10:00,
2013-06-30 03:15:00,77.1,72.9,29.82,West,269,0.0,0.0,87,0.00,,BKN040,0.00,0.00,VWS V14.00,2013-06-30 07:15:00,
2013-06-30 03:20:00,77.1,72.9,29.82,West,269,4.0,6.0,87,0.00,,BKN040,0.00,0.00,VWS V14.00,2013-06-30 07:20:00,
2013-06-30 03:25:00,77.0,72.8,29.81,West,269,0.0,0.0,87,0.00,,BKN040,0.00,0.00,VWS V14.00,2013-06-30 07:25:00,
2013-06-30 03:30:00,76.9,72.7,29.81,West,269,0.0,0.0,87,0.00,,BKN040,0.00,0.00,VWS V14.00,2013-06-30 07:30:00,
2013-06-30 03:35:00,76.8,73.0,29.81,West,269,0.0,0.0,88,0.00,,BKN040,0.00,0.00,VWS V14.00,2013-06-30 07:35:00,
2013-06-30 03:40:00,76.7,72.9,29.81,West,269,0.0,0.0,88,0.00,,BKN040,0.00,0.00,VWS V14.00,2013-06-30 07:40:00,
2013-06-30 03:45:00,76.6,72.8,29.82,West,269,0.0,1.0,88,0.00,,BKN040,0.00,0.00,VWS V14.00,2013-06-30 07:45:00,
2013-06-30 03:50:00,76.6,72.8,29.82,West,269,0.0,0.0,88,0.00,,BKN040,0.00,0.00,VWS V14.00,2013-06-30 07:50:00,
2013-06-30 03:55:00,76.5,72.7,29.82,West,269,0.0,0.0,88,0.00,,BKN040,0.00,0.00,VWS V14.00,2013-06-30 07:55:00,
2013-06-30 04:00:00,76.4,72.6,29.82,West,269,0.0,0.0,88,0.00,,BKN040,0.00,0.00,VWS V14.00,2013-06-30 08:00:00,
2013-06-30 04:05:00,76.3,72.5,29.82,West,269,0.0,0.0,88,0.00,,BKN040,0.00,0.00,VWS V14.00,2013-06-30 08:05:00,
2013-06-30 04:10:00,76.3,72.5,29.82,West,269,0.0,0.0,88,0.00,,BKN040,0.00,0.00,VWS V14.00,2013-06-30 08:10:00,
2013-06-30 04:15:00,76.3,72.8,29.82,West,269,0.0,0.0,89,0.00,,BKN040,0.00,0.00,VWS V14.00,2013-06-30 08:15:00,
2013-06-30 04:20:00,76.2,72.4,29.82,West,269,0.0,0.0,88,0.00,,BKN040,0.00,0.00,VWS V14.00,2013-06-30 08:20:00,
2013-06-30 04:26:00,76.2,72.4,29.82,West,269,0.0,0.0,88,0.00,,BKN040,0.00,0.00,VWS V14.00,2013-06-30 08:26:00,
2013-06-30 04:31:00,76.2,72.4,29.82,West,269,0.0,0.0,88,0.00,,BKN040,0.00,0.00,VWS V14.00,2013-06-30 08:31:00,
2013-06-30 04:36:00,76.2,72.4,29.82,West,269,0.0,0.0,88,0.00,,BKN040,0.00,0.00,VWS V14.00,2013-06-30 08:36:00,
2013-06-30 04:41:00,76.2,72.7,29.81,West,269,0.0,0.0,89,0.00,,BKN040,0.00,0.00,VWS V14.00,2013-06-30 08:41:00,
2013-06-30 04:46:00,76.1,72.6,29.81,West,269,0.0,0.0,89,0.00,,BKN040,0.00,0.00,VWS V14.00,2013-06-30 08:46:00,
2013-06-30 04:51:00,76.1,72.6,29.81,West,269,0.0,0.0,89,0.00,,BKN040,0.00,0.00,VWS V14.00,2013-06-30 08:51:00,
2013-06-30 04:56:00,76.1,72.6,29.81,West,269,0.0,0.0,89,0.00,,BKN040,0.00,0.00,VWS V14.00,2013-06-30 08:56:00,
2013-06-30 05:01:00,76.1,72.6,29.81,West,269,0.0,0.0,89,0.00,,BKN040,0.00,0.00,VWS V14.00,2013-06-30 09:01:00,
2013-06-30 05:06:00,76.0,72.5,29.81,West,269,0.0,0.0,89,0.00,,BKN040,0.00,0.00,VWS V14.00,2013-06-30 09:06:00,
2013-06-30 05:11:00,76.1,72.6,29.81,West,269,0.0,0.0,89,0.00,,BKN040,0.00,0.00,VWS V14.00,2013-06-30 09:11:00,
2013-06-30 05:16:00,76.1,72.6,29.81,West,269,0.0,0.0,89,0.00,,BKN040,0.00,0.00,VWS V14.00,2013-06-30 09:16:00,
2013-06-30 05:21:00,76.1,72.6,29.81,West,269,0.0,0.0,89,0.00,,BKN040,0.00,0.00,VWS V14.00,2013-06-30 09:21:00,
2013-06-30 05:26:00,76.1,72.6,29.81,West,269,0.0,0.0,89,0.00,,BKN040,0.00,0.00,VWS V14.00,2013-06-30 09:26:00,
2013-06-30 05:31:00,76.1,72.6,29.82,West,269,0.0,0.0,89,0.00,,BKN040,0.00,0.00,VWS V14.00,2013-06-30 09:31:00,
2013-06-30 05:36:00,76.1,72.6,29.82,West,269,0.0,0.0,89,0.00,,BKN040,0.00,0.00,VWS V14.00,2013-06-30 09:36:00,
2013-06-30 05:41:00,76.1,72.6,29.82,West,269,0.0,0.0,89,0.00,,BKN040,0.00,0.00,VWS V14.00,2013-06-30 09:41:00,
2013-06-30 05:46:00,76.1,72.6,29.83,West,269,0.0,1.0,89,0.00,,BKN040,0.00,0.00,VWS V14.00,2013-06-30 09:46:00,
2013-06-30 05:51:00,76.1,72.6,29.83,West,269,0.0,0.0,89,0.00,,BKN040,0.00,0.00,VWS V14.00,2013-06-30 09:51:00,
2013-06-30 05:56:00,76.2,72.7,29.83,West,269,0.0,0.0,89,0.00,,BKN040,0.00,0.00,VWS V14.00,2013-06-30 09:56:00,
2013-06-30 06:01:00,76.1,72.6,29.82,West,269,0.0,0.0,89,0.00,,BKN040,0.00,0.00,VWS V14.00,2013-06-30 10:01:00,
2013-06-30 06:06:00,76.1,72.6,29.83,West,269,0.0,0.0,89,0.00,,BKN040,0.00,0.00,VWS V14.00,2013-06-30 10:06:00,
2013-06-30 06:11:00,76.1,72.6,29.83,West,269,0.0,0.0,89,0.00,,BKN040,0.00,0.00,VWS V14.00,2013-06-30 10:11:00,
2013-06-30 06:16:00,76.1,72.6,29.83,West,269,0.0,0.0,89,0.00,,BKN040,0.00,0.00,VWS V14.00,2013-06-30 10:16:00,
2013-06-30 06:21:00,76.1,72.6,29.83,West,269,0.0,0.0,89,0.00,,BKN040,0.00,0.00,VWS V14.00,2013-06-30 10:21:00,
2013-06-30 06:26:00,76.0,72.5,29.83,West,269,0.0,0.0,89,0.00,,BKN040,0.00,0.00,VWS V14.00,2013-06-30 10:26:00,
2013-06-30 06:32:00,76.0,72.5,29.83,West,269,0.0,1.0,89,0.00,,BKN040,0.00,0.00,VWS V14.00,2013-06-30 10:32:00,
2013-06-30 06:37:00,76.0,72.5,29.83,West,269,0.0,0.0,89,0.00,,BKN040,0.00,0.00,VWS V14.00,2013-06-30 10:37:00,
2013-06-30 06:42:00,76.0,72.5,29.83,West,269,0.0,0.0,89,0.00,,BKN040,0.00,5.00,VWS V14.00,2013-06-30 10:42:00,
2013-06-30 06:47:00,76.0,72.5,29.83,West,269,0.0,0.0,89,0.00,,BKN040,0.00,7.00,VWS V14.00,2013-06-30 10:47:00,
2013-06-30 06:52:00,76.1,72.6,29.83,West,269,0.0,0.0,89,0.00,,BKN040,0.00,9.00,VWS V14.00,2013-06-30 10:52:00,
2013-06-30 06:57:00,76.1,72.6,29.83,West,269,0.0,0.0,89,0.00,,BKN040,0.00,11.00,VWS V14.00,2013-06-30 10:57:00,
2013-06-30 07:02:00,76.2,72.7,29.83,West,269,0.0,0.0,89,0.00,,BKN040,0.00,12.00,VWS V14.00,2013-06-30 11:02:00,
2013-06-30 07:07:00,76.2,72.7,29.83,West,269,0.0,0.0,89,0.00,,BKN040,0.00,14.00,VWS V14.00,2013-06-30 11:07:00,
2013-06-30 07:12:00,76.3,73.2,29.83,West,269,0.0,0.0,90,0.00,,BKN040,0.00,18.00,VWS V14.00,2013-06-30 11:12:00,
2013-06-30 07:17:00,76.4,73.2,29.83,West,269,0.0,2.0,90,0.00,,BKN040,0.00,23.00,VWS V14.00,2013-06-30 11:17:00,
2013-06-30 07:22:00,76.6,73.4,29.84,West,269,0.0,0.0,90,0.00,,BKN040,0.00,176.00,VWS V14.00,2013-06-30 11:22:00,
2013-06-30 07:27:00,76.8,73.7,29.84,West,269,0.0,0.0,90,0.00,,BKN040,0.00,186.00,VWS V14.00,2013-06-30 11:27:00,
2013-06-30 07:32:00,77.1,73.9,29.84,ESE,114,0.0,0.0,90,0.00,,CLR,0.00,188.00,VWS V14.00,2013-06-30 11:32:00,
2013-06-30 07:37:00,77.5,74.3,29.84,ESE,114,0.0,0.0,90,0.00,,CLR,0.00,193.00,VWS V14.00,2013-06-30 11:37:00,
2013-06-30 07:42:00,77.9,74.4,29.84,ESE,121,0.0,4.0,89,0.00,,CLR,0.00,204.00,VWS V14.00,2013-06-30 11:42:00,
2013-06-30 07:47:00,78.2,74.7,29.84,South,169,5.0,6.0,89,0.00,,CLR,0.00,202.00,VWS V14.00,2013-06-30 11:47:00,
2013-06-30 07:52:00,78.6,75.1,29.84,South,173,0.0,4.0,89,0.00,,CLR,0.00,209.00,VWS V14.00,2013-06-30 11:52:00,
2013-06-30 07:57:00,79.0,75.5,29.84,SSW,193,1.0,4.0,89,0.00,,CLR,0.00,216.00,VWS V14.00,2013-06-30 11:57:00,
2013-06-30 08:02:00,79.4,75.5,29.84,SSW,207,2.0,6.0,88,0.00,,CLR,0.00,213.00,VWS V14.00,2013-06-30 12:02:00,
2013-06-30 08:07:00,79.8,75.9,29.85,SW,223,4.0,7.0,88,0.00,,CLR,0.00,204.00,VWS V14.00,2013-06-30 12:07:00,
2013-06-30 08:12:00,80.2,76.0,29.85,SW,223,1.0,5.0,87,0.00,,CLR,0.00,190.00,VWS V14.00,2013-06-30 12:12:00,
2013-06-30 08:17:00,80.5,76.3,29.85,SW,231,0.0,6.0,87,0.00,,CLR,0.00,183.00,VWS V14.00,2013-06-30 12:17:00,
2013-06-30 08:22:00,80.8,76.2,29.85,SW,232,0.0,0.0,86,0.00,,CLR,0.00,183.00,VWS V14.00,2013-06-30 12:22:00,
2013-06-30 08:27:00,81.2,76.6,29.85,SW,234,5.0,6.0,86,0.00,,CLR,0.00,188.00,VWS V14.00,2013-06-30 12:27:00,
2013-06-30 08:33:00,81.6,76.7,29.85,SW,234,2.0,4.0,85,0.00,,CLR,0.00,181.00,VWS V14.00,2013-06-30 12:33:00,
2013-06-30 08:38:00,81.8,76.5,29.85,SW,236,0.0,5.0,84,0.00,,CLR,0.00,185.00,VWS V14.00,2013-06-30 12:38:00,
2013-06-30 08:43:00,82.1,76.4,29.85,WSW,241,0.0,12.0,83,0.00,,CLR,0.00,185.00,VWS V14.00,2013-06-30 12:43:00,
2013-06-30 08:48:00,82.4,76.7,29.85,WSW,238,4.0,4.0,83,0.00,,CLR,0.00,181.00,VWS V14.00,2013-06-30 12:48:00,
2013-06-30 08:53:00,82.7,76.7,29.85,WSW,246,0.0,4.0,82,0.00,,CLR,0.00,178.00,VWS V14.00,2013-06-30 12:53:00,
2013-06-30 08:58:00,83.0,76.9,29.85,SW,219,5.0,9.0,82,0.00,,CLR,0.00,179.00,VWS V14.00,2013-06-30 12:58:00,
2013-06-30 09:03:00,83.3,76.9,29.85,SW,223,2.0,7.0,81,0.00,,CLR,0.00,193.00,VWS V14.00,2013-06-30 13:03:00,
2013-06-30 09:08:00,83.6,76.8,29.85,WSW,247,6.0,11.0,80,0.00,,CLR,0.00,195.00,VWS V14.00,2013-06-30 13:08:00,
2013-06-30 09:13:00,83.8,76.6,29.85,WSW,248,5.0,7.0,79,0.00,,CLR,0.00,193.00,VWS V14.00,2013-06-30 13:13:00,
2013-06-30 09:18:00,83.7,76.5,29.85,WSW,237,5.0,9.0,79,0.00,,CLR,0.00,90.00,VWS V14.00,2013-06-30 13:18:00,
2013-06-30 09:23:00,83.8,76.2,29.85,WSW,240,0.0,4.0,78,0.00,,CLR,0.00,202.00,VWS V14.00,2013-06-30 13:23:00,
2013-06-30 09:28:00,83.8,76.2,29.85,SW,227,9.0,14.0,78,0.00,,CLR,0.00,93.00,VWS V14.00,2013-06-30 13:28:00,
2013-06-30 09:33:00,83.9,75.9,29.85,WSW,256,6.0,10.0,77,0.00,,CLR,0.00,202.00,VWS V14.00,2013-06-30 13:33:00,
2013-06-30 09:38:00,84.3,75.9,29.85,WSW,249,4.0,7.0,76,0.00,,CLR,0.00,216.00,VWS V14.00,2013-06-30 13:38:00,
2013-06-30 09:43:00,84.7,75.9,29.85,West,259,9.0,12.0,75,0.00,,CLR,0.00,209.00,VWS V14.00,2013-06-30 13:43:00,
2013-06-30 09:48:00,84.9,75.3,29.85,WSW,254,6.0,9.0,73,0.00,,CLR,0.00,211.00,VWS V14.00,2013-06-30 13:48:00,
2013-06-30 09:53:00,85.2,75.6,29.85,WSW,242,1.0,1.0,73,0.00,,CLR,0.00,206.00,VWS V14.00,2013-06-30 13:53:00,
2013-06-30 09:58:00,85.4,75.3,29.85,WSW,249,4.0,10.0,72,0.00,,CLR,0.00,202.00,VWS V14.00,2013-06-30 13:58:00,
2013-06-30 10:03:00,85.6,75.1,29.85,WSW,242,1.0,9.0,71,0.00,,CLR,0.00,207.00,VWS V14.00,2013-06-30 14:03:00,
2013-06-30 10:08:00,85.7,75.2,29.85,WSW,244,0.0,6.0,71,0.00,,CLR,0.00,206.00,VWS V14.00,2013-06-30 14:08:00,
2013-06-30 10:13:00,86.1,75.2,29.85,SW,215,9.0,11.0,70,0.00,,CLR,0.00,209.00,VWS V14.00,2013-06-30 14:13:00,
2013-06-30 10:18:00,86.1,74.8,29.85,WSW,237,4.0,13.0,69,0.00,,CLR,0.00,218.00,VWS V14.00,2013-06-30 14:18:00,
2013-06-30 10:23:00,86.5,76.0,29.85,WSW,248,0.0,4.0,71,0.00,,CLR,0.00,250.00,VWS V14.00,2013-06-30 14:23:00,
2013-06-30 10:28:00,87.0,75.6,29.86,SW,236,4.0,7.0,69,0.00,,CLR,0.00,185.00,VWS V14.00,2013-06-30 14:28:00,
2013-06-30 10:33:00,87.1,74.8,29.85,SW,232,5.0,15.0,67,0.00,,SCT037,0.00,192.00,VWS V14.00,2013-06-30 14:33:00,
2013-06-30 10:38:00,86.7,74.9,29.86,WSW,252,12.0,12.0,68,0.00,,SCT037,0.00,123.00,VWS V14.00,2013-06-30 14:38:00,
2013-06-30 10:43:00,86.5,74.7,29.86,SW,229,3.0,6.0,68,0.00,,SCT037,0.00,230.00,VWS V14.00,2013-06-30 14:43:00,
2013-06-30 10:48:00,86.8,75.4,29.86,SW,235,5.0,11.0,69,0.00,,SCT037,0.00,211.00,VWS V14.00,2013-06-30 14:48:00,
2013-06-30 10:53:00,87.2,75.4,29.86,WSW,247,8.0,12.0,68,0.00,,SCT037,0.00,239.00,VWS V14.00,2013-06-30 14:53:00,
2013-06-30 10:58:00,87.5,75.6,29.86,West,259,6.0,9.0,68,0.00,,SCT037,0.00,232.00,VWS V14.00,2013-06-30 14:58:00,
2013-06-30 11:03:00,87.4,75.1,29.86,WSW,252,4.0,6.0,67,0.00,,SCT037,0.00,97.00,VWS V14.00,2013-06-30 15:03:00,
2013-06-30 11:08:00,87.5,75.2,29.86,WSW,245,5.0,6.0,67,0.00,,SCT037,0.00,230.00,VWS V14.00,2013-06-30 15:08:00,
2013-06-30 11:14:00,87.7,75.4,29.85,SW,232,12.0,14.0,67,0.00,,SCT037,0.00,206.00,VWS V14.00,2013-06-30 15:14:00,
2013-06-30 11:19:00,87.8,75.0,29.85,SW,216,3.0,10.0,66,0.00,,SCT037,0.00,237.00,VWS V14.00,2013-06-30 15:19:00,
2013-06-30 11:24:00,88.1,75.8,29.85,WSW,243,4.0,8.0,67,0.00,,SCT037,0.00,229.00,VWS V14.00,2013-06-30 15:24:00,
2013-06-30 11:29:00,88.0,74.8,29.85,West,263,12.0,16.0,65,0.00,,SCT037,0.00,225.00,VWS V14.00,2013-06-30 15:29:00,
2013-06-30 11:34:00,88.2,75.0,29.85,SW,231,12.0,14.0,65,0.00,,SCT037,0.00,229.00,VWS V14.00,2013-06-30 15:34:00,
2013-06-30 11:39:00,88.3,74.6,29.85,SW,216,2.0,10.0,64,0.00,,SCT037,0.00,91.00,VWS V14.00,2013-06-30 15:39:00,
2013-06-30 11:44:00,88.5,74.8,29.85,West,261,14.0,15.0,64,0.00,,SCT037,0.00,137.00,VWS V14.00,2013-06-30 15:44:00,
2013-06-30 11:49:00,88.5,74.8,29.85,WSW,242,6.0,18.0,64,0.00,,SCT037,0.00,97.00,VWS V14.00,2013-06-30 15:49:00,
2013-06-30 11:54:00,88.2,74.5,29.85,SSW,210,6.0,11.0,64,0.00,,SCT037,0.00,84.00,VWS V14.00,2013-06-30 15:54:00,
2013-06-30 11:59:00,87.4,75.1,29.85,SSW,197,11.0,14.0,67,0.00,,SCT037,0.00,86.00,VWS V14.00,2013-06-30 15:59:00,
2013-06-30 12:04:00,86.6,74.3,29.85,SSW,198,13.0,14.0,67,0.00,,SCT037,0.00,88.00,VWS V14.00,2013-06-30 16:04:00,
2013-06-30 12:09:00,85.5,75.0,29.86,NNW,328,7.0,16.0,71,0.00,,SCT037,0.01,84.00,VWS V14.00,2013-06-30 16:09:00,
2013-06-30 12:14:00,81.1,72.8,29.86,WNW,299,5.0,6.0,76,0.30,,SCT037,0.04,67.00,VWS V14.00,2013-06-30 16:14:00,
2013-06-30 12:19:00,79.6,73.6,29.86,WNW,299,0.0,1.0,82,0.29,,SCT037,0.06,63.00,VWS V14.00,2013-06-30 16:19:00,
2013-06-30 12:25:00,79.0,73.0,29.86,West,273,7.0,24.0,82,0.34,,SCT037,0.09,33.00,VWS V14.00,2013-06-30 16:25:00,
2013-06-30 12:30:00,77.3,71.7,29.87,West,261,9.0,11.0,83,0.23,,SCT037,0.10,42.00,VWS V14.00,2013-06-30 16:30:00,
2013-06-30 12:35:00,76.6,71.8,29.86,West,267,4.0,5.0,85,0.16,,BKN065,0.11,54.00,VWS V14.00,2013-06-30 16:35:00,
2013-06-30 12:40:00,76.5,72.0,29.85,West,267,2.0,4.0,86,0.11,,BKN065,0.12,58.00,VWS V14.00,2013-06-30 16:40:00,
2013-06-30 12:45:00,76.6,72.4,29.85,West,267,0.0,1.0,87,0.12,,BKN065,0.13,62.00,VWS V14.00,2013-06-30 16:45:00,
2013-06-30 12:50:00,77.2,73.4,29.85,West,267,0.0,4.0,88,0.09,,BKN065,0.14,67.00,VWS V14.00,2013-06-30 16:50:00,
2013-06-30 12:55:00,77.9,74.1,29.85,West,260,1.0,3.0,88,0.10,,BKN065,0.15,76.00,VWS V14.00,2013-06-30 16:55:00,
2013-06-30 13:00:00,78.6,74.8,29.85,West,260,0.0,0.0,88,0.10,,BKN065,0.15,102.00,VWS V14.00,2013-06-30 17:00:00,
2013-06-30 13:05:00,79.4,75.9,29.85,West,259,1.0,4.0,89,0.07,,BKN065,0.16,111.00,VWS V14.00,2013-06-30 17:05:00,
2013-06-30 13:10:00,80.1,76.6,29.85,West,259,1.0,1.0,89,0.07,,BKN065,0.16,144.00,VWS V14.00,2013-06-30 17:10:00,
2013-06-30 13:15:00,80.9,77.0,29.85,WSW,254,0.0,1.0,88,0.07,,BKN065,0.17,181.00,VWS V14.00,2013-06-30 17:15:00,
2013-06-30 13:20:00,81.8,77.6,29.85,SW,225,4.0,4.0,87,0.06,,BKN065,0.17,220.00,VWS V14.00,2013-06-30 17:20:00,
2013-06-30 13:25:00,82.7,77.7,29.84,SW,225,2.0,5.0,85,0.05,,BKN065,0.18,151.00,VWS V14.00,2013-06-30 17:25:00,
2013-06-30 13:30:00,83.6,76.8,29.84,WSW,252,0.0,3.0,80,0.05,,BKN065,0.18,141.00,VWS V14.00,2013-06-30 17:30:00,
2013-06-30 13:35:00,84.3,75.9,29.84,WSW,244,3.0,10.0,76,0.05,,SCT045,0.18,111.00,VWS V14.00,2013-06-30 17:35:00,
2013-06-30 13:40:00,84.8,75.6,29.83,SSW,201,4.0,9.0,74,0.00,,SCT045,0.18,127.00,VWS V14.00,2013-06-30 17:40:00,
2013-06-30 13:45:00,85.5,77.1,29.83,SSW,203,0.0,10.0,76,0.00,,SCT045,0.19,218.00,VWS V14.00,2013-06-30 17:45:00,
2013-06-30 13:50:00,85.8,77.0,29.83,SSW,202,4.0,9.0,75,0.00,,SCT045,0.19,98.00,VWS V14.00,2013-06-30 17:50:00,
2013-06-30 13:55:00,85.7,76.5,29.83,SW,217,3.0,5.0,74,0.00,,SCT045,0.19,107.00,VWS V14.00,2013-06-30 17:55:00,
2013-06-30 14:00:00,86.0,76.8,29.82,South,175,3.0,11.0,74,0.00,,SCT045,0.19,121.00,VWS V14.00,2013-06-30 18:00:00,
2013-06-30 14:05:00,86.1,76.4,29.82,SSW,201,11.0,14.0,73,0.00,,SCT045,0.19,113.00,VWS V14.00,2013-06-30 18:05:00,
2013-06-30 14:10:00,86.4,77.1,29.82,SSW,193,5.0,7.0,74,0.00,,SCT045,0.19,127.00,VWS V14.00,2013-06-30 18:10:00,
2013-06-30 14:15:00,86.8,76.7,29.82,South,187,4.0,14.0,72,0.00,,SCT045,0.19,97.00,VWS V14.00,2013-06-30 18:15:00,
2013-06-30 14:20:00,86.6,76.1,29.82,South,182,4.0,19.0,71,0.00,,SCT045,0.19,113.00,VWS V14.00,2013-06-30 18:20:00,
2013-06-30 14:25:00,86.8,76.7,29.82,SSW,199,4.0,14.0,72,0.00,,SCT045,0.19,91.00,VWS V14.00,2013-06-30 18:25:00,
2013-06-30 14:30:00,86.6,76.5,29.82,SSW,208,3.0,14.0,72,0.00,,SCT045,0.19,100.00,VWS V14.00,2013-06-30 18:30:00,
2013-06-30 14:35:00,86.2,76.1,29.81,SSW,198,4.0,10.0,72,0.00,,SCT080,0.19,88.00,VWS V14.00,2013-06-30 18:35:00,
2013-06-30 14:40:00,86.1,76.4,29.81,SSW,206,5.0,6.0,73,0.00,,SCT080,0.19,255.00,VWS V14.00,2013-06-30 18:40:00,
2013-06-30 14:45:00,86.8,74.5,29.81,SW,217,2.0,9.0,67,0.00,,SCT080,0.19,250.00,VWS V14.00,2013-06-30 18:45:00,
2013-06-30 14:50:00,87.3,74.6,29.81,SSW,207,16.0,16.0,66,0.00,,SCT080,0.20,111.00,VWS V14.00,2013-06-30 18:50:00,
2013-06-30 14:55:00,87.0,74.3,29.81,WSW,254,3.0,15.0,66,0.00,,SCT080,0.20,116.00,VWS V14.00,2013-06-30 18:55:00,
2013-06-30 15:00:00,86.9,73.7,29.82,SW,227,9.0,16.0,65,0.00,,SCT080,0.20,104.00,VWS V14.00,2013-06-30 19:00:00,
2013-06-30 15:05:00,86.8,73.6,29.82,WSW,257,13.0,14.0,65,0.00,,SCT080,0.20,141.00,VWS V14.00,2013-06-30 19:05:00,
2013-06-30 15:10:00,87.1,74.4,29.82,WSW,252,8.0,15.0,66,0.00,,SCT080,0.20,102.00,VWS V14.00,2013-06-30 19:10:00,
2013-06-30 15:15:00,87.1,75.3,29.82,WSW,257,12.0,15.0,68,0.00,,SCT080,0.20,139.00,VWS V14.00,2013-06-30 19:15:00,
2013-06-30 15:20:00,87.1,74.8,29.82,WSW,248,13.0,13.0,67,0.00,,SCT080,0.20,76.00,VWS V14.00,2013-06-30 19:20:00,
2013-06-30 15:25:00,86.9,74.6,29.81,WSW,238,4.0,13.0,67,0.00,,SCT080,0.20,102.00,VWS V14.00,2013-06-30 19:25:00,
2013-06-30 15:31:00,86.8,75.0,29.82,SW,229,3.0,12.0,68,0.00,,SCT080,0.20,67.00,VWS V14.00,2013-06-30 19:31:00,
2013-06-30 15:35:00,86.8,75.4,29.83,West,261,11.0,13.0,69,0.00,,SCT080,0.20,67.00,VWS V14.00,2013-06-30 19:35:00,
2013-06-30 15:41:00,86.7,74.9,29.83,WSW,248,6.0,10.0,68,0.00,,SCT080,0.20,58.00,VWS V14.00,2013-06-30 19:41:00,
2013-06-30 15:46:00,86.5,74.7,29.83,SW,217,4.0,11.0,68,0.00,,SCT080,0.20,56.00,VWS V14.00,2013-06-30 19:46:00,
2013-06-30 15:51:00,86.4,74.2,29.82,SW,231,9.0,15.0,67,0.00,,SCT080,0.20,44.00,VWS V14.00,2013-06-30 19:51:00,
2013-06-30 15:56:00,86.2,74.4,29.83,SW,227,5.0,7.0,68,0.00,,SCT080,0.20,37.00,VWS V14.00,2013-06-30 19:56:00,
2013-06-30 16:01:00,85.7,74.8,29.83,West,263,12.0,14.0,70,0.00,,SCT080,0.20,26.00,VWS V14.00,2013-06-30 20:01:00,
2013-06-30 16:06:00,84.5,74.9,29.83,West,263,5.0,9.0,73,0.00,,SCT080,0.20,30.00,VWS V14.00,2013-06-30 20:06:00,
2013-06-30 16:11:00,83.5,74.8,29.83,West,261,3.0,7.0,75,0.00,,SCT080,0.20,35.00,VWS V14.00,2013-06-30 20:11:00,
2013-06-30 16:16:00,83.0,75.1,29.83,WSW,254,4.0,5.0,77,0.00,,SCT080,0.20,37.00,VWS V14.00,2013-06-30 20:16:00,
2013-06-30 16:21:00,82.8,75.6,29.84,WSW,254,3.0,4.0,79,0.00,,SCT080,0.20,19.00,VWS V14.00,2013-06-30 20:21:00,
2013-06-30 16:26:00,82.4,75.6,29.84,WNW,284,0.0,0.0,80,0.00,,SCT080,0.20,14.00,VWS V14.00,2013-06-30 20:26:00,
2013-06-30 16:31:00,82.2,75.8,29.84,WNW,284,0.0,1.0,81,0.00,,SCT080,0.20,14.00,VWS V14.00,2013-06-30 20:31:00,
2013-06-30 16:36:00,82.1,76.1,29.84,WSW,248,5.0,8.0,82,0.00,,SCT080,0.20,14.00,VWS V14.00,2013-06-30 20:36:00,
2013-06-30 16:41:00,80.9,75.3,29.84,South,176,5.0,11.0,83,0.00,,SCT080,0.20,12.00,VWS V14.00,2013-06-30 20:41:00,
2013-06-30 16:46:00,79.8,74.9,29.84,South,182,0.0,5.0,85,0.00,,SCT080,0.20,14.00,VWS V14.00,2013-06-30 20:46:00,
2013-06-30 16:51:00,79.2,74.3,29.83,South,182,0.0,0.0,85,0.00,,SCT080,0.20,14.00,VWS V14.00,2013-06-30 20:51:00,
2013-06-30 16:56:00,78.9,74.4,29.84,SSW,209,5.0,8.0,86,0.00,,SCT080,0.20,9.00,VWS V14.00,2013-06-30 20:56:00,
2013-06-30 17:01:00,77.9,73.0,29.83,West,263,6.0,7.0,85,0.00,,SCT080,0.20,12.00,VWS V14.00,2013-06-30 21:01:00,
2013-06-30 17:06:00,77.2,73.0,29.83,West,267,0.0,0.0,87,0.00,,SCT080,0.20,14.00,VWS V14.00,2013-06-30 21:06:00,
2013-06-30 17:11:00,77.2,73.4,29.83,West,267,1.0,1.0,88,0.00,,SCT080,0.20,12.00,VWS V14.00,2013-06-30 21:11:00,
2013-06-30 17:16:00,77.3,73.5,29.84,West,267,0.0,2.0,88,0.00,,SCT080,0.21,12.00,VWS V14.00,2013-06-30 21:16:00,
2013-06-30 17:21:00,77.6,74.1,29.83,South,169,4.0,9.0,89,0.00,,SCT080,0.21,16.00,VWS V14.00,2013-06-30 21:21:00,
2013-06-30 17:26:00,77.9,74.4,29.84,South,169,0.0,0.0,89,0.00,,SCT080,0.21,14.00,VWS V14.00,2013-06-30 21:26:00,
2013-06-30 17:31:00,78.2,74.7,29.84,South,169,0.0,1.0,89,0.00,,SCT080,0.21,12.00,VWS V14.00,2013-06-30 21:31:00,
2013-06-30 17:36:00,78.4,74.9,29.83,South,169,0.0,0.0,89,0.00,,BKN038,0.21,14.00,VWS V14.00,2013-06-30 21:36:00,
2013-06-30 17:41:00,78.5,75.0,29.83,South,169,2.0,3.0,89,0.00,,BKN038,0.21,16.00,VWS V14.00,2013-06-30 21:41:00,
2013-06-30 17:46:00,78.7,75.2,29.83,South,169,0.0,0.0,89,0.00,,BKN038,0.21,16.00,VWS V14.00,2013-06-30 21:46:00,
2013-06-30 17:51:00,78.8,75.3,29.83,SSE,164,0.0,0.0,89,0.00,,BKN038,0.21,19.00,VWS V14.00,2013-06-30 21:51:00,
2013-06-30 17:56:00,78.9,75.4,29.83,SSE,164,0.0,0.0,89,0.00,,BKN038,0.21,18.00,VWS V14.00,2013-06-30 21:56:00,
2013-06-30 18:01:00,79.1,75.6,29.83,SSE,164,0.0,0.0,89,0.00,,BKN038,0.21,18.00,VWS V14.00,2013-06-30 22:01:00,
2013-06-30 18:06:00,79.3,75.8,29.83,SSE,164,0.0,0.0,89,0.00,,BKN038,0.21,19.00,VWS V14.00,2013-06-30 22:06:00,
2013-06-30 18:11:00,79.4,75.5,29.83,SSE,164,0.0,0.0,88,0.00,,BKN038,0.21,16.00,VWS V14.00,2013-06-30 22:11:00,
2013-06-30 18:16:00,79.5,75.6,29.83,SSE,165,0.0,5.0,88,0.00,,BKN038,0.21,19.00,VWS V14.00,2013-06-30 22:16:00,
2013-06-30 18:21:00,79.7,75.8,29.83,SE,146,0.0,0.0,88,0.00,,BKN038,0.21,18.00,VWS V14.00,2013-06-30 22:21:00,
2013-06-30 18:26:00,79.9,76.0,29.83,South,180,3.0,4.0,88,0.00,,BKN038,0.21,5.00,VWS V14.00,2013-06-30 22:26:00,
2013-06-30 18:31:00,78.8,73.6,29.84,West,272,6.0,15.0,84,0.00,,BKN038,0.22,0.00,VWS V14.00,2013-06-30 22:31:00,
2013-06-30 18:37:00,76.9,72.1,29.84,WNW,298,5.0,12.0,85,0.00,,BKN090,0.22,7.00,VWS V14.00,2013-06-30 22:37:00,
2013-06-30 18:42:00,76.1,71.9,29.84,WNW,300,0.0,1.0,87,0.00,,BKN090,0.22,9.00,VWS V14.00,2013-06-30 22:42:00,
2013-06-30 18:47:00,75.9,72.1,29.84,West,278,4.0,4.0,88,0.00,,BKN090,0.22,11.00,VWS V14.00,2013-06-30 22:47:00,
2013-06-30 18:52:00,75.7,71.9,29.84,WSW,252,0.0,0.0,88,0.00,,BKN090,0.22,12.00,VWS V14.00,2013-06-30 22:52:00,
2013-06-30 18:57:00,75.8,72.3,29.83,WSW,254,0.0,0.0,89,0.00,,BKN090,0.22,12.00,VWS V14.00,2013-06-30 22:57:00,
2013-06-30 19:02:00,75.9,72.4,29.84,WSW,254,0.0,0.0,89,0.00,,BKN090,0.22,12.00,VWS V14.00,2013-06-30 23:02:00,
2013-06-30 19:07:00,76.1,72.6,29.84,WSW,254,0.0,0.0,89,0.00,,BKN090,0.22,14.00,VWS V14.00,2013-06-30 23:07:00,
2013-06-30 19:12:00,76.3,72.8,29.84,WSW,254,0.0,0.0,89,0.00,,BKN090,0.22,14.00,VWS V14.00,2013-06-30 23:12:00,
2013-06-30 19:17:00,76.6,73.1,29.84,WSW,254,0.0,0.0,89,0.00,,BKN090,0.22,12.00,VWS V14.00,2013-06-30 23:17:00,
2013-06-30 19:22:00,76.7,73.2,29.84,WSW,254,0.0,0.0,89,0.00,,BKN090,0.22,12.00,VWS V14.00,2013-06-30 23:22:00,
2013-06-30 19:27:00,77.0,73.5,29.84,WSW,254,0.0,0.0,89,0.00,,BKN090,0.22,11.00,VWS V14.00,2013-06-30 23:27:00,
2013-06-30 19:32:00,77.2,73.7,29.85,WSW,254,0.0,0.0,89,0.00,,BKN090,0.22,9.00,VWS V14.00,2013-06-30 23:32:00,
2013-06-30 19:37:00,77.2,73.7,29.85,WSW,254,0.0,0.0,89,0.00,,OVC150,0.22,7.00,VWS V14.00,2013-06-30 23:37:00,
2013-06-30 19:42:00,77.4,73.9,29.85,WSW,254,0.0,0.0,89,0.00,,OVC150,0.22,5.00,VWS V14.00,2013-06-30 23:42:00,
2013-06-30 19:47:00,77.7,74.2,29.85,WSW,254,0.0,0.0,89,0.00,,OVC150,0.23,0.00,VWS V14.00,2013-06-30 23:47:00,
2013-06-30 19:52:00,78.0,74.5,29.85,WSW,254,0.0,0.0,89,0.00,,OVC150,0.23,0.00,VWS V14.00,2013-06-30 23:52:00,
2013-06-30 19:57:00,77.9,74.4,29.86,West,259,4.0,10.0,89,0.00,,OVC150,0.23,0.00,VWS V14.00,2013-06-30 23:57:00,
2013-06-30 20:02:00,77.7,74.2,29.86,SW,236,7.0,13.0,89,0.00,,OVC150,0.23,0.00,VWS V14.00,2013-07-01 00:02:00,
2013-06-30 20:07:00,77.6,73.8,29.87,WSW,239,4.0,4.0,88,0.00,,OVC150,0.23,0.00,VWS V14.00,2013-07-01 00:07:00,
2013-06-30 20:12:00,77.4,73.6,29.87,WSW,245,8.0,11.0,88,0.00,,OVC150,0.23,0.00,VWS V14.00,2013-07-01 00:12:00,
2013-06-30 20:17:00,77.3,73.5,29.87,WSW,237,3.0,3.0,88,0.00,,OVC150,0.23,0.00,VWS V14.00,2013-07-01 00:17:00,
2013-06-30 20:22:00,77.2,73.4,29.88,SW,235,3.0,4.0,88,0.00,,OVC150,0.23,0.00,VWS V14.00,2013-07-01 00:22:00,
2013-06-30 20:27:00,77.0,73.2,29.88,SW,236,0.0,5.0,88,0.00,,OVC150,0.23,0.00,VWS V14.00,2013-07-01 00:27:00,
2013-06-30 20:32:00,76.9,72.7,29.88,WSW,237,0.0,6.0,87,0.00,,OVC150,0.23,0.00,VWS V14.00,2013-07-01 00:32:00,
2013-06-30 20:37:00,76.8,72.6,29.87,WSW,237,0.0,0.0,87,0.00,,OVC150,0.23,0.00,VWS V14.00,2013-07-01 00:37:00,
2013-06-30 20:42:00,76.7,72.5,29.87,WSW,237,0.0,0.0,87,0.00,,OVC150,0.23,0.00,VWS V14.00,2013-07-01 00:42:00,
2013-06-30 20:47:00,76.6,72.4,29.87,WSW,237,0.0,0.0,87,0.00,,OVC150,0.23,0.00,VWS V14.00,2013-07-01 00:47:00,
2013-06-30 20:52:00,76.6,72.8,29.87,WSW,237,3.0,4.0,88,0.00,,OVC150,0.23,0.00,VWS V14.00,2013-07-01 00:52:00,
2013-06-30 20:57:00,76.7,72.9,29.88,SW,236,4.0,4.0,88,0.00,,OVC150,0.23,0.00,VWS V14.00,2013-07-01 00:57:00,
2013-06-30 21:02:00,76.8,73.0,29.88,SW,214,0.0,3.0,88,0.00,,OVC150,0.23,0.00,VWS V14.00,2013-07-01 01:02:00,
2013-06-30 21:07:00,76.9,73.1,29.88,SW,214,0.0,3.0,88,0.00,,OVC150,0.23,0.00,VWS V14.00,2013-07-01 01:07:00,
2013-06-30 21:12:00,77.0,73.2,29.88,SW,214,0.0,0.0,88,0.00,,OVC150,0.23,0.00,VWS V14.00,2013-07-01 01:12:00,
2013-06-30 21:17:00,77.0,73.2,29.88,SW,215,0.0,3.0,88,0.00,,OVC150,0.23,0.00,VWS V14.00,2013-07-01 01:17:00,
2013-06-30 21:22:00,77.0,73.5,29.88,SW,217,0.0,0.0,89,0.00,,OVC150,0.23,0.00,VWS V14.00,2013-07-01 01:22:00,
2013-06-30 21:27:00,77.0,73.2,29.88,SW,218,0.0,4.0,88,0.00,,OVC150,0.23,0.00,VWS V14.00,2013-07-01 01:27:00,
2013-06-30 21:32:00,77.0,73.2,29.88,SW,216,4.0,5.0,88,0.00,,OVC150,0.23,0.00,VWS V14.00,2013-07-01 01:32:00,
2013-06-30 21:37:00,77.0,73.5,29.88,SW,218,0.0,0.0,89,0.00,,OVC150,0.23,0.00,VWS V14.00,2013-07-01 01:37:00,
2013-06-30 21:42:00,77.0,73.5,29.88,SW,218,0.0,0.0,89,0.00,,OVC150,0.23,0.00,VWS V14.00,2013-07-01 01:42:00,
2013-06-30 21:47:00,77.0,73.2,29.88,SW,218,0.0,1.0,88,0.00,,OVC150,0.23,0.00,VWS V14.00,2013-07-01 01:47:00,
2013-06-30 21:52:00,77.0,73.5,29.88,SW,218,0.0,1.0,89,0.00,,OVC150,0.24,0.00,VWS V14.00,2013-07-01 01:52:00,
2013-06-30 21:57:00,77.0,73.2,29.88,SW,217,0.0,0.0,88,0.00,,OVC150,0.24,0.00,VWS V14.00,2013-07-01 01:57:00,
2013-06-30 22:02:00,77.0,73.2,29.88,SW,217,0.0,0.0,88,0.00,,OVC150,0.24,0.00,VWS V14.00,2013-07-01 02:02:00,
2013-06-30 22:07:00,77.0,73.2,29.88,SW,218,0.0,4.0,88,0.00,,OVC150,0.24,0.00,VWS V14.00,2013-07-01 02:07:00,
2013-06-30 22:13:00,77.0,73.2,29.89,SW,217,2.0,4.0,88,0.00,,OVC150,0.24,0.00,VWS V14.00,2013-07-01 02:13:00,
2013-06-30 22:18:00,77.1,73.3,29.89,SW,217,0.0,0.0,88,0.00,,OVC150,0.24,0.00,VWS V14.00,2013-07-01 02:18:00,
2013-06-30 22:22:00,77.1,73.3,29.89,SW,217,0.0,0.0,88,0.00,,OVC150,0.24,0.00,VWS V14.00,2013-07-01 02:22:00,
2013-06-30 22:28:00,77.1,73.3,29.89,SW,217,0.0,0.0,88,0.00,,OVC150,0.24,0.00,VWS V14.00,2013-07-01 02:28:00,
2013-06-30 22:33:00,77.0,73.2,29.89,SW,217,0.0,0.0,88,0.00,,BKN085,0.24,0.00,VWS V14.00,2013-07-01 02:33:00,
2013-06-30 22:38:00,77.0,73.2,29.89,SW,217,0.0,0.0,88,0.00,,BKN085,0.24,0.00,VWS V14.00,2013-07-01 02:38:00,
2013-06-30 22:43:00,77.0,73.2,29.90,SW,217,0.0,0.0,88,0.00,,BKN085,0.24,0.00,VWS V14.00,2013-07-01 02:43:00,
2013-06-30 22:48:00,77.0,73.5,29.90,SW,217,0.0,0.0,89,0.00,,BKN085,0.24,0.00,VWS V14.00,2013-07-01 02:48:00,
2013-06-30 22:53:00,77.0,73.2,29.90,SW,217,0.0,0.0,88,0.00,,BKN085,0.24,0.00,VWS V14.00,2013-07-01 02:53:00,
2013-06-30 22:58:00,77.0,73.5,29.90,SW,217,0.0,3.0,89,0.00,,BKN085,0.24,0.00,VWS V14.00,2013-07-01 02:58:00,
2013-06-30 23:03:00,77.1,73.6,29.90,SW,217,0.0,4.0,89,0.00,,BKN085,0.24,0.00,VWS V14.00,2013-07-01 03:03:00,
2013-06-30 23:08:00,77.1,73.6,29.90,SW,217,0.0,0.0,89,0.00,,BKN085,0.24,0.00,VWS V14.00,2013-07-01 03:08:00,
2013-06-30 23:13:00,77.1,73.6,29.90,SW,217,0.0,0.0,89,0.00,,BKN085,0.24,0.00,VWS V14.00,2013-07-01 03:13:00,
2013-06-30 23:18:00,77.1,73.6,29.90,SW,217,2.0,2.0,89,0.00,,BKN085,0.24,0.00,VWS V14.00,2013-07-01 03:18:00,
2013-06-30 23:23:00,77.1,73.6,29.90,SW,217,0.0,0.0,89,0.00,,BKN085,0.24,0.00,VWS V14.00,2013-07-01 03:23:00,
2013-06-30 23:28:00,77.1,73.6,29.90,SW,217,0.0,0.0,89,0.00,,BKN085,0.24,0.00,VWS V14.00,2013-07-01 03:28:00,
2013-06-30 23:33:00,77.1,73.6,29.90,SW,217,0.0,0.0,89,0.00,,BKN065,0.24,0.00,VWS V14.00,2013-07-01 03:33:00,
2013-06-30 23:38:00,77.1,73.6,29.90,SW,217,0.0,0.0,89,0.00,,BKN065,0.24,0.00,VWS V14.00,2013-07-01 03:38:00,
2013-06-30 23:43:00,77.1,73.6,29.90,SW,217,0.0,0.0,89,0.00,,BKN065,0.24,0.00,VWS V14.00,2013-07-01 03:43:00,
2013-06-30 23:48:00,77.1,73.6,29.90,SW,217,0.0,0.0,89,0.00,,BKN065,0.24,0.00,VWS V14.00,2013-07-01 03:48:00,
2013-06-30 23:53:00,77.1,73.6,29.90,SW,217,0.0,0.0,89,0.00,,BKN065,0.24,0.00,VWS V14.00,2013-07-01 03:53:00,
2013-06-30 23:58:00,77.0,73.5,29.91,SW,217,0.0,0.0,89,0.00,,BKN065,0.24,0.00,VWS V14.00,2013-07-01 03:58:00,